createdAt,value
2022-12-14T00:02:11.231Z,28.73
2022-12-14T00:07:04.413Z,24.87
2022-12-14T00:11:57.635Z,20.90
2022-12-14T00:16:53.124Z,20.70
2022-12-14T00:21:47.282Z,18.97
2022-12-14T00:26:42.607Z,20.07
2022-12-14T00:31:36.564Z,21.73
2022-12-14T00:36:32.268Z,21.53
2022-12-14T00:41:25.509Z,24.63
2022-12-14T00:46:19.277Z,21.53
2022-12-14T00:51:14.943Z,22.53
2022-12-14T00:56:10.331Z,20.10
2022-12-14T01:01:08.257Z,22.97
2022-12-14T01:11:33.276Z,19.43
2022-12-14T01:16:26.638Z,20.67
2022-12-14T01:21:22.141Z,19.80
2022-12-14T01:26:16.842Z,23.13
2022-12-14T01:31:13.789Z,25.40
2022-12-14T01:36:45.983Z,22.70
2022-12-14T01:41:43.347Z,37.03
2022-12-14T01:46:44.151Z,38.97
2022-12-14T01:51:59.870Z,33.83
2022-12-14T01:56:55.434Z,25.43
2022-12-14T02:01:55.284Z,25.37
2022-12-14T02:06:54.173Z,22.23
2022-12-14T02:11:57.142Z,25.47
2022-12-14T02:16:54.423Z,22.30
2022-12-14T02:22:15.352Z,19.87
2022-12-14T02:27:39.471Z,19.92
2022-12-14T02:32:51.477Z,20.70
2022-12-14T02:37:55.532Z,23.50
2022-12-14T02:43:03.094Z,22.97
2022-12-14T02:48:02.835Z,23.63
2022-12-14T02:53:06.293Z,19.87
2022-12-14T02:58:03.045Z,21.77
2022-12-14T03:02:59.901Z,24.87
2022-12-14T03:07:57.028Z,20.00
2022-12-14T03:12:55.739Z,24.30
2022-12-14T03:17:52.776Z,22.60
2022-12-14T03:22:56.591Z,22.30
2022-12-14T03:27:54.921Z,21.63
2022-12-14T03:32:50.982Z,20.33
2022-12-14T03:37:58.284Z,21.03
2022-12-14T03:43:35.649Z,20.63
2022-12-14T03:48:51.558Z,22.73
2022-12-14T03:53:54.100Z,21.30
2022-12-14T03:58:57.681Z,21.33
2022-12-14T04:03:56.553Z,26.37
2022-12-14T04:08:59.692Z,26.60
2022-12-14T04:14:20.137Z,22.87
2022-12-14T04:19:21.228Z,24.00
2022-12-14T04:24:40.847Z,23.07
2022-12-14T04:30:05.391Z,22.80
2022-12-14T04:35:04.079Z,22.20
2022-12-14T04:40:03.950Z,25.87
2022-12-14T04:45:03.925Z,21.50
2022-12-14T04:50:04.702Z,25.57
2022-12-14T04:55:06.031Z,27.43
2022-12-14T05:00:01.615Z,25.43
2022-12-14T05:05:00.985Z,29.17
2022-12-14T05:09:58.623Z,29.07
2022-12-14T05:15:00.453Z,30.50
2022-12-14T05:19:57.423Z,27.23
2022-12-14T05:24:51.281Z,26.47
2022-12-14T05:29:44.768Z,27.23
2022-12-14T05:34:39.558Z,27.60
2022-12-14T05:39:33.011Z,25.50
2022-12-14T05:44:26.332Z,28.37
2022-12-14T05:49:19.691Z,29.40
2022-12-14T05:54:19.215Z,29.20
2022-12-14T05:59:16.020Z,29.73
2022-12-14T06:04:09.478Z,29.57
2022-12-14T06:09:02.918Z,27.40
2022-12-14T06:13:57.638Z,28.10
2022-12-14T06:18:55.224Z,31.37
2022-12-14T06:23:51.140Z,31.37
2022-12-14T06:28:45.452Z,29.33
2022-12-14T06:33:43.012Z,34.20
2022-12-14T06:38:51.948Z,30.90
2022-12-14T06:44:13.399Z,32.33
2022-12-14T07:01:21.258Z,33.27
2022-12-14T07:13:45.796Z,29.23
2022-12-14T07:18:54.846Z,32.73
2022-12-14T07:23:56.659Z,27.43
2022-12-14T07:28:52.661Z,28.23
2022-12-14T07:33:48.337Z,26.53
2022-12-14T07:38:43.141Z,28.30
2022-12-14T07:43:36.953Z,32.57
2022-12-14T07:48:45.292Z,29.93
2022-12-14T07:53:40.240Z,29.73
2022-12-14T07:58:34.017Z,31.60
2022-12-14T08:03:27.646Z,36.77
2022-12-14T08:08:24.555Z,34.47
2022-12-14T08:13:17.778Z,32.03
2022-12-14T08:18:11.004Z,29.60
2022-12-14T08:23:07.266Z,33.83
2022-12-14T08:28:02.885Z,27.23
2022-12-14T08:32:57.337Z,28.27
2022-12-14T08:38:03.982Z,25.13
2022-12-14T08:42:57.331Z,24.40
2022-12-14T08:47:51.869Z,27.20
2022-12-14T08:52:50.671Z,30.27
2022-12-14T08:57:46.038Z,28.37
2022-12-14T09:02:39.764Z,23.73
2022-12-14T09:07:37.429Z,25.83
2022-12-14T09:12:31.116Z,24.43
2022-12-14T09:17:29.494Z,26.97
2022-12-14T09:22:22.998Z,24.43
2022-12-14T09:27:17.974Z,27.00
2022-12-14T09:32:16.870Z,40.13
2022-12-14T09:37:10.284Z,53.33
2022-12-14T09:42:15.272Z,22.10
2022-12-14T09:47:17.001Z,28.97
2022-12-14T09:52:17.250Z,27.23
2022-12-14T09:57:16.082Z,23.58
2022-12-14T10:02:31.390Z,30.57
2022-12-14T10:07:34.131Z,31.10
2022-12-14T10:12:50.447Z,33.23
2022-12-14T10:18:49.939Z,24.10
2022-12-14T10:23:39.785Z,26.52
2022-12-14T10:28:43.161Z,28.53
2022-12-14T10:33:43.857Z,25.53
2022-12-14T10:38:46.311Z,24.75
2022-12-14T10:43:49.523Z,27.47
2022-12-14T10:48:52.494Z,28.90
2022-12-14T10:53:50.852Z,25.53
2022-12-14T10:58:46.781Z,32.93
2022-12-14T11:03:53.277Z,32.73
2022-12-14T11:08:49.029Z,24.47
2022-12-14T11:13:49.519Z,22.97
2022-12-14T11:18:42.797Z,25.27
2022-12-14T11:23:40.588Z,24.03
2022-12-14T11:28:38.988Z,23.10
2022-12-14T11:33:37.618Z,21.83
2022-12-14T11:38:31.809Z,24.77
2022-12-14T11:43:34.109Z,25.43
2022-12-14T11:48:29.281Z,23.47
2022-12-14T11:54:16.816Z,22.40
2022-12-14T11:59:24.478Z,22.90
2022-12-14T12:04:18.996Z,26.93
2022-12-14T12:09:26.571Z,25.40
2022-12-14T12:14:28.730Z,23.23
2022-12-14T12:19:28.513Z,25.97
2022-12-14T12:24:25.328Z,29.93
2022-12-14T12:29:27.185Z,30.80
2022-12-14T12:34:25.917Z,30.93
2022-12-14T12:39:25.423Z,31.33
2022-12-14T12:44:29.044Z,30.57
2022-12-14T12:49:23.194Z,30.60
2022-12-14T12:54:24.912Z,37.23
2022-12-14T12:59:21.369Z,36.40
2022-12-14T13:04:27.883Z,34.57
2022-12-14T13:09:34.456Z,34.70
2022-12-14T13:14:33.272Z,36.07
2022-12-14T13:19:54.883Z,39.43
2022-12-14T13:24:58.885Z,38.07
2022-12-14T13:30:05.605Z,44.10
2022-12-14T13:35:16.118Z,40.53
2022-12-14T13:40:54.439Z,39.38
2022-12-14T13:45:50.164Z,33.23
2022-12-14T13:50:54.202Z,36.03
2022-12-14T13:55:56.738Z,35.67
2022-12-14T14:01:04.277Z,38.90
2022-12-14T14:06:02.158Z,35.07
2022-12-14T14:11:20.579Z,34.63
2022-12-14T14:16:28.402Z,36.30
2022-12-14T14:22:06.177Z,34.53
2022-12-14T14:27:01.703Z,38.87
2022-12-14T14:32:00.260Z,33.60
2022-12-14T14:36:55.570Z,31.67
2022-12-14T14:41:53.567Z,35.23
2022-12-14T14:51:44.285Z,45.53
2022-12-14T14:56:40.202Z,54.67
2022-12-14T15:01:33.799Z,58.60
2022-12-14T15:06:30.291Z,49.73
2022-12-14T15:11:28.011Z,61.80
2022-12-14T15:17:00.664Z,74.80
2022-12-14T15:22:00.750Z,66.43
2022-12-14T15:26:57.406Z,56.27
2022-12-14T15:32:00.828Z,62.27
2022-12-14T15:36:54.980Z,66.23
2022-12-14T15:42:02.446Z,56.17
2022-12-14T15:47:03.499Z,53.60
2022-12-14T15:52:01.013Z,49.80
2022-12-14T15:56:57.126Z,82.77
2022-12-14T16:01:58.950Z,49.93
2022-12-14T16:07:08.130Z,52.20
2022-12-14T16:12:09.054Z,45.70
2022-12-14T16:17:04.484Z,45.67
2022-12-14T16:22:24.676Z,54.80
2022-12-14T16:27:21.275Z,58.97
2022-12-14T16:32:17.627Z,67.37
2022-12-14T16:37:34.590Z,63.93
2022-12-14T16:42:32.919Z,65.87
2022-12-14T16:47:45.785Z,72.83
2022-12-14T16:52:41.850Z,63.10
2022-12-14T16:57:41.536Z,49.93
2022-12-14T17:02:40.612Z,68.00
2022-12-14T17:07:36.470Z,67.90
2022-12-14T17:12:30.012Z,70.53
2022-12-14T17:17:33.374Z,57.67
2022-12-14T17:22:30.002Z,88.63
2022-12-14T17:27:26.796Z,65.77
2022-12-14T17:32:27.066Z,58.87
2022-12-14T17:37:22.384Z,66.65
2022-12-14T17:42:18.244Z,62.50
2022-12-14T17:47:14.175Z,69.37
2022-12-14T17:52:16.976Z,61.50
2022-12-14T17:57:17.113Z,74.77
2022-12-14T18:02:28.208Z,88.07
2022-12-14T18:07:23.217Z,72.50
2022-12-14T18:12:25.010Z,80.83
2022-12-14T18:17:18.816Z,54.17
2022-12-14T18:22:14.407Z,47.03
2022-12-14T18:27:09.610Z,31.63
2022-12-14T18:32:03.392Z,31.73
2022-12-14T18:36:59.693Z,43.97
2022-12-14T18:41:52.996Z,47.20
2022-12-14T18:46:50.206Z,35.23
2022-12-14T18:51:44.109Z,36.33
2022-12-14T18:56:38.093Z,62.00
2022-12-14T19:01:31.553Z,44.30
2022-12-14T19:06:44.228Z,29.80
2022-12-14T19:11:42.053Z,22.67
2022-12-14T19:16:45.732Z,12.27
2022-12-14T19:21:41.763Z,12.27
2022-12-14T19:26:35.141Z,12.40
2022-12-14T19:31:34.918Z,13.07
2022-12-14T19:36:29.988Z,12.87
2022-12-14T19:41:25.007Z,14.70
2022-12-14T19:46:23.226Z,10.53
2022-12-14T19:51:17.430Z,10.57
2022-12-14T19:56:11.628Z,10.73
2022-12-14T20:01:11.103Z,10.43
2022-12-14T20:06:06.044Z,10.55
2022-12-14T20:10:59.725Z,16.00
2022-12-14T20:16:02.523Z,17.73
2022-12-14T20:21:07.741Z,13.02
2022-12-14T20:26:11.652Z,14.30
2022-12-14T20:31:12.043Z,13.00
2022-12-14T20:36:11.418Z,15.97
2022-12-14T20:41:06.262Z,19.15
2022-12-14T20:46:07.028Z,22.83
2022-12-14T20:51:01.694Z,22.25
2022-12-14T20:55:56.920Z,20.70
2022-12-14T21:06:04.448Z,17.13
2022-12-14T21:11:22.452Z,20.67
2022-12-14T21:16:20.093Z,24.03
2022-12-14T21:21:13.378Z,23.60
2022-12-14T21:26:09.647Z,26.03
2022-12-14T21:31:09.431Z,23.83
2022-12-14T21:36:09.695Z,18.38
2022-12-14T21:41:21.344Z,18.60
2022-12-14T21:46:25.500Z,20.90
2022-12-14T21:51:33.459Z,22.73
2022-12-14T21:56:48.976Z,29.70
2022-12-14T22:01:46.745Z,33.20
2022-12-14T22:06:40.443Z,31.50
2022-12-14T22:11:39.430Z,29.83
2022-12-14T22:16:34.711Z,31.13
2022-12-14T22:21:30.828Z,27.03
2022-12-14T22:26:24.712Z,23.13
2022-12-14T22:31:18.231Z,19.13
2022-12-14T22:36:15.131Z,18.50
2022-12-14T22:41:10.306Z,19.30
2022-12-14T22:46:08.159Z,19.63
2022-12-14T22:51:02.550Z,17.77
2022-12-14T22:55:58.693Z,18.87
2022-12-14T23:00:54.329Z,21.87
2022-12-14T23:05:47.880Z,18.20
2022-12-14T23:10:58.604Z,17.00
2022-12-14T23:16:10.814Z,21.80
2022-12-14T23:21:29.248Z,20.30
2022-12-14T23:26:42.630Z,19.27
2022-12-14T23:31:55.863Z,19.20
2022-12-14T23:37:06.847Z,16.87
2022-12-14T23:42:20.192Z,17.13
2022-12-14T23:47:32.381Z,17.38
2022-12-14T23:52:45.940Z,15.40
2022-12-14T23:58:00.135Z,16.57
